Time;durP1;ratioP1;P1;durP2;ratioP2;P2;SDS_P1;SDS_P2;PMS_P1;PMS_P2;Temp;Humidity;BMP_temperature;BMP_pressure;BME280_temperature;BME280_humidity;BME280_pressure;Samples;Min_cycle;Max_cycle;Signal;HPM_P1;HPM_P2
2024/03/27 00:01:32;;;;;;;5.97;2.85;;;11.40;99.90;;;;;;4959893;28;20101;-62
2024/03/27 00:03:57;;;;;;;6.35;3.03;;;11.40;99.90;;;;;;4962791;28;20113;-62
2024/03/27 00:06:23;;;;;;;6.10;2.88;;;11.30;99.90;;;;;;4982444;28;20141;-62
2024/03/27 00:08:49;;;;;;;7.55;2.92;;;11.30;99.90;;;;;;4962635;28;20411;-62
2024/03/27 00:11:16;;;;;;;5.13;3.00;;;11.20;99.90;;;;;;4962020;28;20050;-62
2024/03/27 00:13:42;;;;;;;5.28;2.78;;;11.20;99.90;;;;;;4953112;28;20050;-62
2024/03/27 00:16:08;;;;;;;6.38;2.70;;;11.10;99.90;;;;;;4958626;28;20178;-62
2024/03/27 00:18:34;;;;;;;6.68;2.80;;;11.00;99.90;;;;;;4964714;28;20066;-62
2024/03/27 00:20:59;;;;;;;5.00;2.70;;;10.90;99.90;;;;;;4961326;28;20050;-62
2024/03/27 00:23:26;;;;;;;4.32;2.60;;;10.80;99.90;;;;;;4961485;28;20054;-62
2024/03/27 00:25:59;;;;;;;4.57;2.67;;;10.70;99.90;;;;;;4960872;28;20105;-62
2024/03/27 00:28:25;;;;;;;8.10;3.10;;;10.60;99.90;;;;;;4957248;28;20118;-62
2024/03/27 00:30:52;;;;;;;7.00;2.78;;;10.50;99.90;;;;;;4959754;28;20057;-62
2024/03/27 00:33:18;;;;;;;5.50;2.75;;;10.50;99.90;;;;;;4959009;28;20062;-62
2024/03/27 00:35:57;;;;;;;7.43;2.83;;;10.40;99.90;;;;;;4955537;28;20054;-62
2024/03/27 00:38:23;;;;;;;7.25;3.20;;;10.40;99.90;;;;;;4957140;28;20050;-62
2024/03/27 00:40:50;;;;;;;6.18;2.50;;;10.30;99.90;;;;;;4962543;28;20077;-62
2024/03/27 00:43:17;;;;;;;4.75;2.53;;;10.30;99.90;;;;;;4956007;28;20058;-62
2024/03/27 00:45:43;;;;;;;5.70;2.28;;;10.20;99.90;;;;;;4958769;28;20055;-62
2024/03/27 00:48:09;;;;;;;7.32;2.88;;;10.20;99.90;;;;;;4955553;28;20058;-62
2024/03/27 00:50:36;;;;;;;6.50;2.25;;;10.10;99.90;;;;;;4961795;28;20062;-62
2024/03/27 00:53:03;;;;;;;6.53;3.05;;;10.00;99.90;;;;;;4960754;28;20054;-62
2024/03/27 00:55:29;;;;;;;4.88;2.75;;;9.90;99.90;;;;;;4952058;28;20051;-62
2024/03/27 00:57:55;;;;;;;4.97;2.55;;;9.80;99.90;;;;;;4966527;28;20053;-62
2024/03/27 01:00:22;;;;;;;3.70;2.40;;;9.80;99.90;;;;;;4952465;28;20054;-62
2024/03/27 01:02:49;;;;;;;5.55;2.38;;;9.70;99.90;;;;;;4961902;28;20419;-62
2024/03/27 01:05:18;;;;;;;4.57;2.33;;;9.70;99.90;;;;;;4956774;28;20407;-61
2024/03/27 01:07:44;;;;;;;5.72;2.50;;;9.60;99.90;;;;;;4958354;28;20051;-62
2024/03/27 01:10:10;;;;;;;4.38;2.63;;;9.60;99.90;;;;;;4963472;28;20086;-61
2024/03/27 01:12:40;;;;;;;7.13;2.95;;;9.50;99.90;;;;;;4957077;28;20043;-62
2024/03/27 01:15:07;;;;;;;7.25;2.35;;;9.50;99.90;;;;;;4961569;28;20053;-62
2024/03/27 01:17:33;;;;;;;7.32;2.38;;;9.50;99.90;;;;;;4962009;28;20061;-61
2024/03/27 01:20:00;;;;;;;4.35;2.70;;;9.50;99.90;;;;;;4962689;28;20046;-61
2024/03/27 01:22:26;;;;;;;5.32;2.30;;;9.50;99.90;;;;;;4960547;28;20065;-61
2024/03/27 01:24:51;;;;;;;10.77;2.38;;;9.40;99.90;;;;;;4962641;28;20119;-61
2024/03/27 01:27:18;;;;;;;5.32;2.42;;;9.40;99.90;;;;;;4976848;28;20495;-61
2024/03/27 01:29:44;;;;;;;7.03;2.63;;;9.40;99.90;;;;;;4958986;28;20117;-62
2024/03/27 01:32:10;;;;;;;6.32;2.22;;;9.30;99.90;;;;;;4961063;28;20065;-62
2024/03/27 01:34:35;;;;;;;5.90;2.17;;;9.30;99.90;;;;;;4951703;28;20044;-61
2024/03/27 01:37:01;;;;;;;3.53;2.00;;;9.30;99.90;;;;;;4938010;28;20058;-61
2024/03/27 01:39:27;;;;;;;4.32;2.00;;;9.30;99.90;;;;;;4957124;28;20046;-59
2024/03/27 01:41:53;;;;;;;3.00;1.95;;;9.30;99.90;;;;;;4948510;28;20058;-61
2024/03/27 01:44:20;;;;;;;8.90;2.70;;;9.30;99.90;;;;;;4953073;28;20150;-62
2024/03/27 01:46:50;;;;;;;6.70;2.53;;;9.30;99.90;;;;;;4950325;28;20051;-62
2024/03/27 01:49:17;;;;;;;3.25;2.17;;;9.30;99.90;;;;;;4957732;28;20407;-61
2024/03/27 01:51:43;;;;;;;4.13;2.45;;;9.30;99.90;;;;;;4954303;28;20050;-62
2024/03/27 01:54:14;;;;;;;7.32;2.15;;;9.30;99.90;;;;;;4959653;28;20473;-61
2024/03/27 01:56:40;;;;;;;5.35;2.25;;;9.20;99.90;;;;;;4955768;28;20055;-61
2024/03/27 01:59:06;;;;;;;5.13;2.05;;;9.20;99.90;;;;;;4961135;28;20395;-61
2024/03/27 02:01:34;;;;;;;7.47;1.90;;;9.10;99.90;;;;;;4954724;28;20055;-59
2024/03/27 02:04:00;;;;;;;2.40;1.70;;;9.10;99.90;;;;;;4954603;28;20399;-62
2024/03/27 02:06:26;;;;;;;5.82;1.90;;;9.10;99.90;;;;;;4955350;28;20065;-61
2024/03/27 02:08:52;;;;;;;7.15;2.33;;;8.90;99.90;;;;;;4960146;28;20050;-62
2024/03/27 02:11:19;;;;;;;3.33;2.15;;;8.90;99.90;;;;;;4960431;28;20443;-62
2024/03/27 02:13:45;;;;;;;5.60;1.92;;;8.80;99.90;;;;;;4949868;28;20497;-62
2024/03/27 02:16:13;;;;;;;6.88;2.00;;;8.80;99.90;;;;;;4957522;28;20059;-62
2024/03/27 02:18:38;;;;;;;10.55;2.42;;;8.80;99.90;;;;;;4958320;28;20050;-61
2024/03/27 02:21:06;;;;;;;3.40;2.13;;;8.70;99.90;;;;;;4961388;28;20090;-61
2024/03/27 02:23:58;;;;;;;8.25;2.28;;;8.70;99.90;;;;;;4985601;28;20062;-62
2024/03/27 02:26:28;;;;;;;7.38;2.38;;;8.70;99.90;;;;;;4955986;28;20051;-62
2024/03/27 02:28:53;;;;;;;4.63;2.78;;;8.60;99.90;;;;;;4950594;28;20054;-62
2024/03/27 02:31:19;;;;;;;5.75;2.15;;;8.60;99.90;;;;;;4967187;28;20045;-62
2024/03/27 02:33:45;;;;;;;6.05;2.35;;;8.50;99.90;;;;;;4959797;28;21236;-62
2024/03/27 02:36:11;;;;;;;3.97;1.98;;;8.50;99.90;;;;;;4963774;28;20522;-62
2024/03/27 02:38:36;;;;;;;7.30;2.92;;;8.50;99.90;;;;;;4982423;28;20050;-62
2024/03/27 02:41:02;;;;;;;4.25;1.70;;;8.40;99.90;;;;;;4963587;28;20061;-62
2024/03/27 02:43:29;;;;;;;8.10;2.00;;;8.40;99.90;;;;;;4960202;28;20066;-62
2024/03/27 02:45:54;;;;;;;4.95;2.28;;;8.40;99.90;;;;;;4966567;28;20062;-62
2024/03/27 02:48:20;;;;;;;7.07;1.90;;;8.30;99.90;;;;;;4955407;28;20055;-62
2024/03/27 02:50:46;;;;;;;4.05;1.98;;;8.20;99.90;;;;;;4958440;28;20109;-62
2024/03/27 02:53:12;;;;;;;7.25;2.17;;;8.30;99.90;;;;;;4962919;28;20061;-62
2024/03/27 02:55:37;;;;;;;4.65;2.00;;;8.30;99.90;;;;;;4967312;28;20125;-62
2024/03/27 02:58:03;;;;;;;5.53;2.00;;;8.20;99.90;;;;;;4962202;28;20054;-62
2024/03/27 03:00:29;;;;;;;6.00;2.20;;;8.20;99.90;;;;;;4962321;28;20051;-62
2024/03/27 03:02:55;;;;;;;4.45;2.30;;;8.10;99.90;;;;;;4964265;28;20129;-62
2024/03/27 03:05:21;;;;;;;2.67;1.83;;;8.10;99.90;;;;;;4965599;28;20133;-62
2024/03/27 03:07:46;;;;;;;6.57;2.38;;;7.90;99.90;;;;;;4960974;28;20878;-62
2024/03/27 03:10:13;;;;;;;6.20;1.95;;;7.90;99.90;;;;;;4961959;28;20058;-62
2024/03/27 03:12:38;;;;;;;2.75;1.70;;;8.00;99.90;;;;;;4957076;28;20055;-62
2024/03/27 03:15:05;;;;;;;3.95;1.83;;;8.00;99.90;;;;;;4959366;28;20668;-62
2024/03/27 03:17:31;;;;;;;3.38;2.38;;;8.00;99.90;;;;;;4967220;28;20491;-62
2024/03/27 03:19:56;;;;;;;3.45;1.73;;;8.10;99.90;;;;;;4960879;28;20109;-62
2024/03/27 03:22:22;;;;;;;5.28;2.00;;;8.10;99.90;;;;;;4959035;28;20077;-62
2024/03/27 03:24:49;;;;;;;4.32;1.85;;;8.20;99.90;;;;;;4954899;28;20061;-62
2024/03/27 03:27:16;;;;;;;5.15;1.80;;;8.20;99.90;;;;;;4958592;28;20062;-62
2024/03/27 03:29:41;;;;;;;5.95;1.90;;;8.30;99.90;;;;;;4962531;28;21330;-62
2024/03/27 03:32:07;;;;;;;2.90;1.52;;;8.30;99.90;;;;;;4962652;28;20083;-62
2024/03/27 03:34:33;;;;;;;3.00;1.65;;;8.20;99.90;;;;;;4961503;28;20105;-62
2024/03/27 03:36:59;;;;;;;3.67;1.60;;;8.20;99.90;;;;;;4963417;28;20050;-60
2024/03/27 03:39:25;;;;;;;4.57;1.80;;;8.20;99.90;;;;;;4968275;28;20059;-62
2024/03/27 03:41:50;;;;;;;4.47;1.70;;;8.20;99.90;;;;;;4967760;28;20055;-62
2024/03/27 03:44:16;;;;;;;5.28;1.75;;;8.30;99.90;;;;;;4960373;28;20062;-62
2024/03/27 03:46:42;;;;;;;5.45;1.60;;;8.30;99.90;;;;;;4955388;28;20046;-62
2024/03/27 03:49:08;;;;;;;4.53;1.85;;;8.40;99.90;;;;;;4955450;28;20530;-62
2024/03/27 03:51:33;;;;;;;2.15;1.42;;;8.40;99.90;;;;;;4956902;28;20082;-61
2024/03/27 03:53:59;;;;;;;3.35;1.70;;;8.40;99.90;;;;;;4965811;28;20054;-62
2024/03/27 03:56:25;;;;;;;3.08;1.60;;;8.30;99.90;;;;;;4962771;28;20060;-62
2024/03/27 03:58:51;;;;;;;4.57;1.70;;;8.40;99.90;;;;;;4962027;28;20055;-61
2024/03/27 04:01:16;;;;;;;4.28;2.05;;;8.40;99.90;;;;;;4959459;28;20512;-62
2024/03/27 04:03:43;;;;;;;5.75;1.75;;;8.30;99.90;;;;;;4962674;28;20062;-62
2024/03/27 04:06:09;;;;;;;7.03;1.95;;;8.30;99.90;;;;;;4965052;28;20058;-62
2024/03/27 04:08:35;;;;;;;4.28;1.88;;;8.40;99.90;;;;;;4957300;28;20046;-62
2024/03/27 04:11:04;;;;;;;5.13;1.92;;;8.40;99.90;;;;;;4965828;28;20054;-62
2024/03/27 04:13:30;;;;;;;3.80;1.77;;;8.40;99.90;;;;;;4949687;28;20090;-62
2024/03/27 04:15:56;;;;;;;6.13;1.85;;;8.40;99.90;;;;;;4960292;28;20133;-62
2024/03/27 04:18:22;;;;;;;2.72;1.42;;;8.40;99.90;;;;;;4960388;28;20411;-62
2024/03/27 04:20:47;;;;;;;4.47;1.75;;;8.30;99.90;;;;;;4961052;28;20118;-61
2024/03/27 04:23:13;;;;;;;3.60;1.80;;;8.30;99.90;;;;;;4964557;28;20392;-62
2024/03/27 04:25:47;;;;;;;5.47;1.83;;;8.30;99.90;;;;;;4953119;28;20055;-61
2024/03/27 04:28:13;;;;;;;4.93;1.83;;;8.30;99.90;;;;;;4962233;28;20057;-61
2024/03/27 04:30:39;;;;;;;5.93;1.60;;;8.30;99.90;;;;;;4955212;28;20054;-62
2024/03/27 04:33:04;;;;;;;4.55;1.80;;;8.30;99.90;;;;;;4965377;28;20706;-62
2024/03/27 04:35:30;;;;;;;4.72;1.80;;;8.30;99.90;;;;;;4959401;28;20105;-61
2024/03/27 04:37:56;;;;;;;6.88;1.98;;;8.30;99.90;;;;;;4965144;28;20069;-62
2024/03/27 04:40:22;;;;;;;4.55;1.83;;;8.20;99.90;;;;;;4957546;28;20042;-61
2024/03/27 04:42:47;;;;;;;4.47;1.90;;;8.20;99.90;;;;;;4965758;28;20046;-62
2024/03/27 04:45:13;;;;;;;9.02;1.88;;;8.20;99.90;;;;;;4954530;28;20053;-62
2024/03/27 04:47:39;;;;;;;5.60;1.90;;;8.20;99.90;;;;;;4962690;28;20092;-61
2024/03/27 04:50:05;;;;;;;3.38;1.70;;;8.30;99.90;;;;;;4963150;28;20082;-62
2024/03/27 04:52:31;;;;;;;3.65;1.55;;;8.30;99.90;;;;;;4957138;28;20082;-62
2024/03/27 04:54:57;;;;;;;3.28;1.73;;;8.30;99.90;;;;;;4958328;28;20077;-62
2024/03/27 04:57:23;;;;;;;3.05;1.75;;;8.30;99.90;;;;;;4965726;28;20038;-62
2024/03/27 04:59:48;;;;;;;5.97;2.10;;;8.40;99.90;;;;;;4956510;28;20134;-62
2024/03/27 05:02:14;;;;;;;5.28;2.55;;;8.40;99.90;;;;;;4961294;28;20062;-62
2024/03/27 05:04:40;;;;;;;6.75;2.72;;;8.40;99.90;;;;;;4979916;28;20062;-62
2024/03/27 05:07:06;;;;;;;3.28;1.73;;;8.50;99.90;;;;;;4960433;28;20081;-61
2024/03/27 05:09:34;;;;;;;3.15;1.80;;;8.50;99.90;;;;;;4953203;28;20051;-62
2024/03/27 05:12:01;;;;;;;7.72;1.92;;;8.50;99.90;;;;;;4958524;28;20062;-62
2024/03/27 05:14:27;;;;;;;10.77;2.58;;;8.50;99.90;;;;;;4975903;28;20090;-62
2024/03/27 05:16:53;;;;;;;4.25;2.28;;;8.60;99.90;;;;;;4958477;28;20059;-61
2024/03/27 05:19:19;;;;;;;4.68;1.90;;;8.70;99.90;;;;;;4958810;28;20057;-62
2024/03/27 05:21:45;;;;;;;4.78;1.80;;;8.60;99.90;;;;;;4955727;28;20051;-62
2024/03/27 05:24:11;;;;;;;4.60;2.28;;;8.70;99.90;;;;;;4960258;28;20117;-61
2024/03/27 05:26:37;;;;;;;17.08;5.15;;;8.70;99.90;;;;;;4949107;28;20093;-62
2024/03/27 05:29:04;;;;;;;4.53;2.63;;;8.70;99.90;;;;;;4953353;28;20066;-62
2024/03/27 05:31:30;;;;;;;5.50;3.00;;;8.80;99.90;;;;;;4955381;28;20046;-62
2024/03/27 05:33:56;;;;;;;9.13;3.53;;;8.70;99.90;;;;;;4951165;28;20078;-62
2024/03/27 05:36:22;;;;;;;10.75;3.10;;;8.80;99.90;;;;;;4957512;28;20467;-61
2024/03/27 05:38:48;;;;;;;4.53;2.70;;;8.80;99.90;;;;;;4952129;28;20388;-61
2024/03/27 05:41:14;;;;;;;6.35;2.40;;;8.80;99.90;;;;;;4961308;28;20065;-62
2024/03/27 05:43:41;;;;;;;6.80;2.28;;;8.80;99.90;;;;;;4952246;28;20666;-62
2024/03/27 05:46:06;;;;;;;5.80;2.00;;;8.80;99.90;;;;;;4958736;28;20062;-63
2024/03/27 05:48:32;;;;;;;10.80;1.85;;;8.90;99.90;;;;;;4951504;28;20050;-63
2024/03/27 05:50:58;;;;;;;6.38;2.90;;;8.90;99.90;;;;;;4952567;28;20566;-63
2024/03/27 05:53:24;;;;;;;7.57;3.70;;;9.00;99.90;;;;;;4958119;28;20042;-63
2024/03/27 05:55:57;;;;;;;5.40;3.35;;;9.00;99.90;;;;;;4951632;28;20551;-63
2024/03/27 05:58:23;;;;;;;6.75;4.30;;;9.00;99.90;;;;;;4955750;28;20055;-63
2024/03/27 06:00:49;;;;;;;7.20;4.32;;;9.00;99.90;;;;;;4951464;28;20047;-63
2024/03/27 06:03:15;;;;;;;12.70;4.95;;;9.10;99.90;;;;;;4957259;28;20059;-63
2024/03/27 06:05:41;;;;;;;13.38;9.02;;;9.20;99.90;;;;;;4959827;28;20639;-63
2024/03/27 06:08:07;;;;;;;18.05;9.57;;;9.20;99.90;;;;;;4960600;28;20498;-63
2024/03/27 06:10:34;;;;;;;7.03;5.55;;;9.30;99.90;;;;;;4962521;28;20502;-63
2024/03/27 06:13:04;;;;;;;5.78;4.20;;;9.40;99.90;;;;;;4963183;28;20511;-62
2024/03/27 06:15:33;;;;;;;6.00;4.10;;;9.40;99.90;;;;;;4965278;28;20057;-63
2024/03/27 06:18:02;;;;;;;8.52;4.00;;;9.50;99.90;;;;;;4955827;28;20047;-63
2024/03/27 06:20:28;;;;;;;4.72;3.75;;;9.50;99.90;;;;;;4961682;28;20567;-63
2024/03/27 06:22:57;;;;;;;8.40;3.60;;;9.50;99.90;;;;;;4961038;28;20058;-63
2024/03/27 06:25:22;;;;;;;7.82;3.90;;;9.60;99.90;;;;;;4965563;28;20054;-63
2024/03/27 06:27:48;;;;;;;11.52;4.38;;;9.70;99.90;;;;;;4962420;28;20158;-63
2024/03/27 06:30:14;;;;;;;10.00;4.30;;;9.70;99.90;;;;;;4963736;28;20099;-63
2024/03/27 06:32:41;;;;;;;6.70;3.90;;;9.70;99.90;;;;;;4964861;28;20054;-63
2024/03/27 06:35:07;;;;;;;7.72;3.78;;;9.70;99.90;;;;;;4955287;28;20061;-63
2024/03/27 06:37:33;;;;;;;6.28;3.38;;;9.70;99.90;;;;;;4963119;28;20050;-61
2024/03/27 06:40:00;;;;;;;5.78;3.47;;;9.70;99.90;;;;;;4962128;28;20054;-61
2024/03/27 06:42:27;;;;;;;4.05;3.00;;;9.80;99.90;;;;;;4962589;28;20046;-61
2024/03/27 06:44:53;;;;;;;5.10;3.08;;;9.80;99.90;;;;;;4957680;28;20059;-61
2024/03/27 06:47:19;;;;;;;4.32;2.67;;;9.80;99.90;;;;;;4964036;28;20050;-61
2024/03/27 06:49:46;;;;;;;6.70;2.92;;;9.90;99.90;;;;;;4958844;28;20566;-60
2024/03/27 06:52:11;;;;;;;4.50;2.63;;;9.90;99.90;;;;;;4960806;28;20051;-61
2024/03/27 06:54:37;;;;;;;7.40;2.60;;;9.90;99.90;;;;;;4960805;28;20270;-61
2024/03/27 06:57:03;;;;;;;1.88;1.67;;;9.90;99.90;;;;;;4960318;28;20574;-61
2024/03/27 06:59:29;;;;;;;2.65;1.42;;;9.80;99.90;;;;;;4956906;28;20113;-60
2024/03/27 07:01:54;;;;;;;3.47;1.17;;;9.60;99.90;;;;;;4958754;28;20143;-63
2024/03/27 07:04:20;;;;;;;4.70;2.45;;;9.50;99.90;;;;;;4956221;28;20055;-63
2024/03/27 07:06:46;;;;;;;3.70;2.30;;;9.20;99.90;;;;;;4958375;28;20108;-63
2024/03/27 07:09:12;;;;;;;3.67;2.25;;;9.10;99.90;;;;;;4953953;28;20061;-62
2024/03/27 07:11:38;;;;;;;0.98;0.98;;;9.10;99.90;;;;;;4956126;28;20082;-62
2024/03/27 07:14:03;;;;;;;0.88;0.77;;;9.00;99.90;;;;;;4958822;28;20047;-60
2024/03/27 07:16:29;;;;;;;0.60;0.60;;;8.90;99.90;;;;;;4963126;28;20046;-58
2024/03/27 07:19:04;;;;;;;0.45;0.45;;;8.80;99.90;;;;;;4949380;28;20050;-59
2024/03/27 07:21:30;;;;;;;2.33;0.50;;;8.70;99.90;;;;;;4961044;28;20051;-56
2024/03/27 07:23:55;;;;;;;0.68;0.40;;;8.70;99.90;;;;;;4963402;28;20109;-59
2024/03/27 07:26:21;;;;;;;0.40;0.40;;;8.60;99.90;;;;;;4956271;28;20051;-60
2024/03/27 07:28:47;;;;;;;1.83;0.63;;;8.60;99.90;;;;;;4963144;28;20046;-60
2024/03/27 07:31:12;;;;;;;0.50;0.50;;;8.70;99.90;;;;;;4956367;28;20054;-61
2024/03/27 07:33:38;;;;;;;0.40;0.40;;;8.70;99.90;;;;;;4963292;28;20054;-61
2024/03/27 07:36:04;;;;;;;0.35;0.35;;;8.60;99.90;;;;;;4962415;28;20051;-61
2024/03/27 07:38:30;;;;;;;0.30;0.30;;;8.60;99.90;;;;;;4953347;28;20051;-59
2024/03/27 07:40:58;;;;;;;1.55;0.40;;;8.60;99.90;;;;;;4981665;28;20065;-61
2024/03/27 07:43:24;;;;;;;0.60;0.30;;;8.70;99.90;;;;;;4962994;28;20056;-61
2024/03/27 07:45:49;;;;;;;0.70;0.40;;;8.80;99.90;;;;;;4959791;28;20047;-60
2024/03/27 07:48:15;;;;;;;0.50;0.40;;;8.80;99.90;;;;;;4962905;28;20054;-61
2024/03/27 07:50:41;;;;;;;0.30;0.30;;;8.80;99.90;;;;;;4958151;28;20066;-61
2024/03/27 07:53:06;;;;;;;0.50;0.30;;;8.70;99.90;;;;;;4958529;28;20051;-59
2024/03/27 07:55:32;;;;;;;0.30;0.30;;;8.70;99.90;;;;;;4954575;28;20062;-61
2024/03/27 07:57:58;;;;;;;0.45;0.40;;;8.80;99.90;;;;;;4962030;28;20051;-61
2024/03/27 08:00:24;;;;;;;0.40;0.40;;;8.80;99.90;;;;;;4960487;28;20124;-61
2024/03/27 08:02:49;;;;;;;0.68;0.30;;;8.80;99.90;;;;;;4960828;28;20058;-62
2024/03/27 08:05:16;;;;;;;0.40;0.40;;;8.80;99.90;;;;;;4962080;28;20058;-61
2024/03/27 08:07:41;;;;;;;0.30;0.30;;;8.70;99.90;;;;;;4960044;28;20054;-61
2024/03/27 08:10:08;;;;;;;0.25;0.25;;;8.70;99.90;;;;;;4957996;28;20054;-58
2024/03/27 08:12:34;;;;;;;0.50;0.28;;;8.70;99.90;;;;;;4960607;28;20054;-57
2024/03/27 08:15:00;;;;;;;0.30;0.30;;;8.70;99.90;;;;;;4952798;28;20051;-60
2024/03/27 08:17:26;;;;;;;0.63;0.35;;;8.80;99.90;;;;;;4963729;28;20078;-60
2024/03/27 08:19:51;;;;;;;0.25;0.25;;;8.90;99.90;;;;;;4957252;28;20050;-55
2024/03/27 08:22:19;;;;;;;0.93;0.40;;;8.90;99.90;;;;;;4965412;28;20090;-57
2024/03/27 08:24:44;;;;;;;1.45;0.20;;;8.90;99.90;;;;;;4961963;28;20047;-56
2024/03/27 08:27:10;;;;;;;0.30;0.22;;;8.80;99.90;;;;;;4984368;28;20099;-57
2024/03/27 08:29:36;;;;;;;0.35;0.35;;;8.80;99.90;;;;;;4955697;28;20111;-59
2024/03/27 08:32:02;;;;;;;0.60;0.35;;;8.80;99.90;;;;;;4964306;28;20050;-60
2024/03/27 08:34:27;;;;;;;1.35;0.30;;;8.70;99.90;;;;;;4961577;28;20138;-59
2024/03/27 08:36:56;;;;;;;0.40;0.40;;;8.80;99.90;;;;;;4963068;28;20143;-61
2024/03/27 08:39:22;;;;;;;0.30;0.30;;;8.80;99.90;;;;;;4961194;28;20048;-62
2024/03/27 08:41:48;;;;;;;0.30;0.30;;;8.70;99.90;;;;;;4944876;28;20098;-62
2024/03/27 08:44:15;;;;;;;0.32;0.22;;;8.70;99.90;;;;;;4948251;28;20047;-62
2024/03/27 08:46:41;;;;;;;0.32;0.30;;;8.70;99.90;;;;;;4960970;28;20074;-61
2024/03/27 08:49:10;;;;;;;2.63;0.50;;;8.60;99.90;;;;;;4955665;28;20134;-62
2024/03/27 08:51:36;;;;;;;0.55;0.40;;;8.70;99.90;;;;;;4963542;28;20050;-61
2024/03/27 08:54:02;;;;;;;0.93;0.52;;;8.80;99.90;;;;;;4962857;28;20046;-62
2024/03/27 08:56:28;;;;;;;0.30;0.30;;;8.70;99.90;;;;;;4965748;28;20113;-62
2024/03/27 08:58:54;;;;;;;0.40;0.32;;;8.80;99.90;;;;;;4962146;28;20528;-62
2024/03/27 09:01:20;;;;;;;0.40;0.40;;;8.90;99.90;;;;;;4964430;28;20054;-62
2024/03/27 09:03:46;;;;;;;0.40;0.40;;;8.70;99.90;;;;;;4965277;28;20051;-61
2024/03/27 09:06:13;;;;;;;0.52;0.50;;;8.60;99.90;;;;;;4964686;28;20120;-62
2024/03/27 09:08:39;;;;;;;0.40;0.40;;;8.60;99.90;;;;;;4960956;28;20054;-62
2024/03/27 09:11:08;;;;;;;0.40;0.40;;;8.60;99.90;;;;;;4963595;28;20051;-61
2024/03/27 09:13:34;;;;;;;0.50;0.40;;;8.50;99.90;;;;;;4959709;28;20066;-62
2024/03/27 09:16:00;;;;;;;0.30;0.30;;;8.50;99.90;;;;;;4965900;28;20466;-62
2024/03/27 09:18:26;;;;;;;1.55;0.52;;;8.40;99.90;;;;;;4958888;28;20047;-61
2024/03/27 09:20:53;;;;;;;0.45;0.45;;;8.50;99.90;;;;;;4965874;28;20538;-61
2024/03/27 09:23:19;;;;;;;0.40;0.40;;;8.50;99.90;;;;;;4965551;28;20042;-61
2024/03/27 09:26:01;;;;;;;0.40;0.40;;;8.50;99.90;;;;;;4966481;28;20095;-62
2024/03/27 09:28:28;;;;;;;1.65;0.70;;;8.40;99.90;;;;;;4959394;28;20050;-62
2024/03/27 09:30:55;;;;;;;2.25;0.50;;;8.30;99.90;;;;;;4963509;28;20050;-62
2024/03/27 09:33:21;;;;;;;0.40;0.40;;;8.30;99.90;;;;;;4968274;28;20057;-61
2024/03/27 09:35:49;;;;;;;0.32;0.32;;;8.30;99.90;;;;;;4958111;28;20058;-62
2024/03/27 09:38:15;;;;;;;0.40;0.30;;;8.20;99.90;;;;;;4967773;28;20514;-62
2024/03/27 09:40:46;;;;;;;1.65;0.47;;;8.10;99.90;;;;;;4962285;28;20046;-62
2024/03/27 09:43:13;;;;;;;0.40;0.40;;;8.10;99.90;;;;;;4965669;28;20057;-62
2024/03/27 09:45:40;;;;;;;0.40;0.40;;;8.00;99.90;;;;;;4962916;28;20071;-62
2024/03/27 09:48:07;;;;;;;0.60;0.50;;;8.00;99.90;;;;;;4958312;28;20058;-61
2024/03/27 09:50:33;;;;;;;0.50;0.40;;;8.00;99.90;;;;;;4962035;28;20050;-62
2024/03/27 09:53:00;;;;;;;0.60;0.60;;;8.00;99.90;;;;;;4966251;28;20392;-62
2024/03/27 09:55:31;;;;;;;0.68;0.50;;;8.10;99.90;;;;;;4964714;28;20062;-61
2024/03/27 09:57:59;;;;;;;0.32;0.30;;;8.10;99.90;;;;;;4966825;28;20070;-61
2024/03/27 10:00:28;;;;;;;0.35;0.35;;;8.10;99.90;;;;;;4958769;28;20555;-62
2024/03/27 10:02:54;;;;;;;0.38;0.38;;;8.10;99.90;;;;;;4966076;28;20054;-61
2024/03/27 10:05:25;;;;;;;0.50;0.50;;;8.00;99.90;;;;;;4958227;28;20051;-61
2024/03/27 10:07:55;;;;;;;0.43;0.43;;;7.90;99.90;;;;;;4963688;28;20069;-62
2024/03/27 10:10:22;;;;;;;0.50;0.50;;;7.90;99.90;;;;;;4957277;28;20431;-61
2024/03/27 10:12:48;;;;;;;0.50;0.50;;;8.10;99.90;;;;;;4965439;28;20073;-61
2024/03/27 10:15:14;;;;;;;0.77;0.60;;;8.00;99.90;;;;;;4966433;28;20046;-61
2024/03/27 10:17:41;;;;;;;0.47;0.47;;;8.00;99.90;;;;;;4968839;28;20046;-62
2024/03/27 10:20:08;;;;;;;0.82;0.68;;;7.90;99.90;;;;;;4958850;28;20046;-62
2024/03/27 10:22:34;;;;;;;1.00;0.52;;;7.80;99.90;;;;;;4965873;28;20054;-61
2024/03/27 10:25:05;;;;;;;2.00;0.30;;;7.80;99.90;;;;;;4966149;28;20105;-62
2024/03/27 10:27:32;;;;;;;0.40;0.40;;;7.70;99.90;;;;;;4967083;28;20590;-62
2024/03/27 10:29:58;;;;;;;0.80;0.68;;;7.60;99.90;;;;;;4966108;28;20069;-62
2024/03/27 10:32:25;;;;;;;0.40;0.40;;;7.60;99.90;;;;;;4958054;28;20054;-62
2024/03/27 10:34:51;;;;;;;0.60;0.50;;;7.60;99.90;;;;;;4966074;28;20184;-61
2024/03/27 10:37:18;;;;;;;0.57;0.57;;;7.60;99.90;;;;;;4967692;28;20062;-61
2024/03/27 10:39:48;;;;;;;2.22;0.73;;;7.50;99.90;;;;;;4962908;28;20110;-61
2024/03/27 10:42:25;;;;;;;1.45;0.88;;;7.50;99.90;;;;;;4965009;28;20062;-61
2024/03/27 10:44:59;;;;;;;0.75;0.70;;;7.70;99.90;;;;;;4966930;28;20050;-61
2024/03/27 10:47:33;;;;;;;0.52;0.43;;;7.60;99.90;;;;;;4967446;28;20062;-59
2024/03/27 10:50:01;;;;;;;0.68;0.60;;;7.60;99.90;;;;;;4965511;28;20050;-61
2024/03/27 10:52:29;;;;;;;0.30;0.30;;;7.60;99.90;;;;;;4959649;28;20051;-61
2024/03/27 10:54:56;;;;;;;0.30;0.30;;;7.40;99.90;;;;;;4969633;28;20503;-61
2024/03/27 10:57:22;;;;;;;0.30;0.30;;;7.30;99.90;;;;;;4967729;28;20458;-61
2024/03/27 10:59:50;;;;;;;0.32;0.32;;;7.30;99.90;;;;;;4971141;28;20054;-61
2024/03/27 11:02:18;;;;;;;0.40;0.40;;;7.30;99.90;;;;;;4966365;28;20058;-61
2024/03/27 11:05:01;;;;;;;0.30;0.30;;;7.30;99.90;;;;;;4969791;28;20054;-62
2024/03/27 11:07:32;;;;;;;0.40;0.40;;;7.20;99.90;;;;;;4965694;28;20054;-61
2024/03/27 11:09:58;;;;;;;0.95;0.50;;;7.20;99.90;;;;;;4966838;28;20061;-61
2024/03/27 11:12:24;;;;;;;0.57;0.40;;;7.30;99.90;;;;;;4967050;28;20394;-62
2024/03/27 11:14:52;;;;;;;0.47;0.45;;;7.10;99.90;;;;;;4963079;28;20553;-61
2024/03/27 11:17:25;;;;;;;0.50;0.50;;;7.20;99.90;;;;;;4970165;28;20046;-59
2024/03/27 11:19:54;;;;;;;0.73;0.60;;;7.20;99.90;;;;;;4964843;28;20055;-61
2024/03/27 11:22:23;;;;;;;0.80;0.73;;;7.20;99.90;;;;;;4942021;29;20055;-62
2024/03/27 11:24:50;;;;;;;0.30;0.30;;;7.20;99.90;;;;;;4965612;28;20118;-61
2024/03/27 11:27:26;;;;;;;0.75;0.50;;;7.10;99.90;;;;;;4966930;28;20054;-61
2024/03/27 11:29:54;;;;;;;0.30;0.30;;;7.00;99.90;;;;;;4966595;28;20324;-62
2024/03/27 11:32:20;;;;;;;0.40;0.40;;;7.00;99.90;;;;;;4967466;28;20049;-62
2024/03/27 11:34:47;;;;;;;0.90;0.57;;;7.00;99.90;;;;;;4961783;28;20054;-61
2024/03/27 11:37:12;;;;;;;1.25;0.82;;;7.10;99.90;;;;;;4970745;28;20042;-61
2024/03/27 11:39:38;;;;;;;1.20;0.80;;;7.00;99.90;;;;;;4967139;28;20046;-61
2024/03/27 11:42:04;;;;;;;0.60;0.60;;;7.10;99.90;;;;;;4970962;28;20408;-61
2024/03/27 11:44:32;;;;;;;0.40;0.40;;;7.00;99.90;;;;;;4961355;28;20103;-61
2024/03/27 11:46:58;;;;;;;2.40;1.38;;;7.10;99.90;;;;;;4961070;28;20112;-61
2024/03/27 11:49:24;;;;;;;0.32;0.32;;;7.20;99.90;;;;;;4964078;28;20062;-61
2024/03/27 11:51:50;;;;;;;0.90;0.70;;;7.30;99.90;;;;;;4965918;28;20511;-61
2024/03/27 11:54:16;;;;;;;1.45;0.70;;;7.40;99.90;;;;;;4959916;28;20054;-61
2024/03/27 11:56:42;;;;;;;0.82;0.70;;;7.50;99.90;;;;;;4966722;28;20073;-62
2024/03/27 11:59:08;;;;;;;2.60;0.90;;;7.50;99.90;;;;;;4969121;28;20129;-61
2024/03/27 12:01:34;;;;;;;0.40;0.40;;;7.60;99.90;;;;;;4971476;28;20054;-62
2024/03/27 12:04:03;;;;;;;0.20;0.20;;;7.80;99.90;;;;;;4968618;28;20108;-60
2024/03/27 12:06:29;;;;;;;0.57;0.50;;;7.80;99.90;;;;;;4968440;28;20054;-61
2024/03/27 12:08:56;;;;;;;1.27;0.85;;;7.90;99.90;;;;;;4964081;28;20423;-61
2024/03/27 12:11:23;;;;;;;0.40;0.40;;;7.90;99.90;;;;;;4967711;28;20061;-60
2024/03/27 12:13:50;;;;;;;1.02;0.40;;;7.80;99.90;;;;;;4963967;28;20048;-61
2024/03/27 12:16:16;;;;;;;2.47;0.82;;;7.80;99.90;;;;;;4963028;28;20094;-61
2024/03/27 12:18:45;;;;;;;0.75;0.63;;;8.00;99.90;;;;;;4964024;28;20055;-61
2024/03/27 12:21:12;;;;;;;0.43;0.43;;;8.10;99.90;;;;;;4961059;28;20105;-62
2024/03/27 12:23:39;;;;;;;1.55;0.80;;;8.20;99.90;;;;;;4968368;28;20054;-61
2024/03/27 12:26:11;;;;;;;1.15;0.80;;;8.20;99.90;;;;;;4954527;28;20055;-61
2024/03/27 12:28:38;;;;;;;0.60;0.60;;;8.30;99.90;;;;;;4959342;28;20771;-61
2024/03/27 12:31:04;;;;;;;0.90;0.70;;;8.20;99.90;;;;;;4940320;28;20064;-62
2024/03/27 12:33:33;;;;;;;1.25;0.90;;;8.30;99.90;;;;;;4963324;28;20419;-62
2024/03/27 12:35:59;;;;;;;0.85;0.70;;;8.30;99.90;;;;;;4960451;28;20074;-62
2024/03/27 12:38:25;;;;;;;0.60;0.50;;;8.40;99.90;;;;;;4967006;28;20090;-62
2024/03/27 12:40:51;;;;;;;0.60;0.60;;;8.40;99.90;;;;;;4962197;28;20090;-61
2024/03/27 12:43:17;;;;;;;1.13;0.80;;;8.20;99.90;;;;;;4951180;28;20047;-62
2024/03/27 12:45:43;;;;;;;0.70;0.70;;;8.40;99.90;;;;;;4957751;28;20066;-62
2024/03/27 12:48:20;;;;;;;0.60;0.60;;;8.60;99.90;;;;;;4959342;28;20051;-61
2024/03/27 12:50:50;;;;;;;1.50;1.00;;;8.80;99.90;;;;;;4962843;28;20109;-62
2024/03/27 12:53:16;;;;;;;1.00;0.70;;;9.00;99.90;;;;;;4953546;28;20047;-61